Time;durP1;ratioP1;P1;durP2;ratioP2;P2;SDS_P1;SDS_P2;PMS_P1;PMS_P2;Temp;Humidity;BMP_temperature;BMP_pressure;BME280_temperature;BME280_humidity;BME280_pressure;Samples;Min_cycle;Max_cycle;Signal;HPM_P1;HPM_P2
2024/03/06 00:01:17;;;;;;;3.30;3.20;;;4.60;99.90;;;;;;5116630;28;20714;-82
2024/03/06 00:03:44;;;;;;;2.15;2.05;;;4.60;99.90;;;;;;5120644;27;20205;-81
2024/03/06 00:06:12;;;;;;;3.58;3.33;;;4.50;99.90;;;;;;5098893;28;20270;-82
2024/03/06 00:08:40;;;;;;;3.60;2.75;;;4.60;99.90;;;;;;5112764;28;20221;-82
2024/03/06 00:11:08;;;;;;;3.33;3.17;;;4.60;99.90;;;;;;5134365;27;20197;-82
2024/03/06 00:13:36;;;;;;;1.45;1.45;;;4.60;99.90;;;;;;5145968;27;20198;-82
2024/03/06 00:16:04;;;;;;;9.07;8.43;;;4.60;99.90;;;;;;5146254;27;20229;-82
2024/03/06 00:18:31;;;;;;;2.72;2.55;;;4.50;99.90;;;;;;5121762;28;20226;-83
2024/03/06 00:20:58;;;;;;;3.22;3.03;;;4.50;99.90;;;;;;5118949;28;20379;-81
2024/03/06 00:23:26;;;;;;;2.63;2.53;;;4.50;99.90;;;;;;5114069;28;20198;-81
2024/03/06 00:25:54;;;;;;;4.65;4.38;;;4.70;99.90;;;;;;5105933;28;20206;-84
2024/03/06 00:28:22;;;;;;;5.18;4.93;;;4.60;99.90;;;;;;5115712;28;20194;-82
2024/03/06 00:30:56;;;;;;;6.07;5.65;;;4.50;99.90;;;;;;5115111;28;20193;-83
2024/03/06 00:33:24;;;;;;;6.20;5.68;;;4.60;99.90;;;;;;5118729;28;20202;-82
2024/03/06 00:35:51;;;;;;;1.35;1.35;;;4.60;99.90;;;;;;5138698;28;20201;-83
2024/03/06 00:38:18;;;;;;;2.55;2.38;;;4.50;99.90;;;;;;5109913;28;20224;-83
2024/03/06 00:40:51;;;;;;;7.00;5.85;;;4.50;99.90;;;;;;5139228;27;20193;-82
2024/03/06 00:43:19;;;;;;;3.45;3.25;;;4.50;99.90;;;;;;5140492;27;20193;-82
2024/03/06 00:45:46;;;;;;;5.03;4.72;;;4.40;99.90;;;;;;5123937;28;20205;-82
2024/03/06 00:48:20;;;;;;;5.13;4.72;;;4.50;99.90;;;;;;5115188;28;20269;-82
2024/03/06 00:50:48;;;;;;;11.15;5.25;;;4.40;99.90;;;;;;5121032;27;20268;-84
2024/03/06 00:53:18;;;;;;;3.85;3.60;;;4.40;99.90;;;;;;5126896;27;20202;-82
2024/03/06 00:55:47;;;;;;;4.03;3.85;;;4.40;99.90;;;;;;5115348;28;20550;-83
2024/03/06 00:58:14;;;;;;;3.17;3.00;;;4.40;99.90;;;;;;5116186;28;20202;-82
2024/03/06 01:00:44;;;;;;;5.05;4.80;;;4.30;99.90;;;;;;5103081;28;20380;-82
2024/03/06 01:03:13;;;;;;;3.92;3.63;;;4.30;99.90;;;;;;5116386;28;20208;-83
2024/03/06 01:05:40;;;;;;;6.20;5.80;;;4.30;99.90;;;;;;5109232;28;20238;-83
2024/03/06 01:08:09;;;;;;;6.25;5.85;;;4.40;99.90;;;;;;5096842;28;20194;-83
2024/03/06 01:10:39;;;;;;;3.25;3.10;;;4.30;99.90;;;;;;5117156;28;20205;-84
2024/03/06 01:13:11;;;;;;;4.90;4.60;;;4.30;99.90;;;;;;5110139;28;20202;-83
2024/03/06 01:15:40;;;;;;;6.70;3.83;;;4.30;99.90;;;;;;5088184;28;20289;-84
2024/03/06 01:18:09;;;;;;;5.65;5.35;;;4.30;99.90;;;;;;5103190;28;20198;-89
2024/03/06 01:20:37;;;;;;;4.22;4.03;;;4.30;99.90;;;;;;5087316;28;20197;-84
2024/03/06 01:23:05;;;;;;;5.43;4.90;;;4.20;99.90;;;;;;5118289;28;20221;-84
2024/03/06 01:25:34;;;;;;;2.83;2.72;;;4.30;99.90;;;;;;5095911;28;20202;-84
2024/03/06 01:28:02;;;;;;;9.05;7.25;;;4.30;99.90;;;;;;5108220;28;20249;-84
2024/03/06 01:30:30;;;;;;;6.63;4.68;;;4.30;99.90;;;;;;5113178;28;20221;-84
2024/03/06 01:33:01;;;;;;;3.80;3.60;;;4.30;99.90;;;;;;5103487;28;20695;-84
2024/03/06 01:35:32;;;;;;;5.30;4.90;;;4.30;99.90;;;;;;5112163;28;20217;-83
2024/03/06 01:38:01;;;;;;;5.90;5.50;;;4.30;99.90;;;;;;5094557;28;20240;-83
2024/03/06 01:40:29;;;;;;;3.95;3.65;;;4.30;99.90;;;;;;5107041;28;20194;-83
2024/03/06 01:42:56;;;;;;;5.68;4.95;;;4.30;99.90;;;;;;5105895;28;20226;-83
2024/03/06 01:45:23;;;;;;;7.55;7.15;;;4.30;99.90;;;;;;5107442;28;20198;-83
2024/03/06 01:47:50;;;;;;;7.03;4.68;;;4.30;99.90;;;;;;5118799;28;20203;-84
2024/03/06 01:50:18;;;;;;;2.35;2.25;;;4.30;99.90;;;;;;5124861;28;20198;-83
2024/03/06 01:52:46;;;;;;;6.80;4.45;;;4.30;99.90;;;;;;5126902;28;20197;-83
2024/03/06 01:55:15;;;;;;;10.20;9.27;;;4.30;99.90;;;;;;5115050;28;20324;-83
2024/03/06 01:57:42;;;;;;;9.52;8.35;;;4.50;99.90;;;;;;5120378;28;20225;-83
2024/03/06 02:00:13;;;;;;;3.72;3.42;;;4.30;99.90;;;;;;5081792;28;20265;-82
2024/03/06 02:02:42;;;;;;;4.28;4.07;;;4.30;99.90;;;;;;5102867;28;20260;-84
2024/03/06 02:05:10;;;;;;;6.47;5.50;;;4.30;99.90;;;;;;5097951;28;20635;-83
2024/03/06 02:07:42;;;;;;;3.00;2.90;;;4.30;99.90;;;;;;5121092;28;20198;-84
2024/03/06 02:10:12;;;;;;;7.93;7.38;;;4.30;99.90;;;;;;5091507;28;20198;-81
2024/03/06 02:12:39;;;;;;;11.63;4.82;;;4.20;99.90;;;;;;5103057;28;20517;-84
2024/03/06 02:15:08;;;;;;;4.68;4.38;;;4.20;99.90;;;;;;5094044;28;20243;-83
2024/03/06 02:17:35;;;;;;;3.20;3.05;;;4.10;99.90;;;;;;5100523;28;20234;-83
2024/03/06 02:20:05;;;;;;;8.30;7.15;;;4.00;99.90;;;;;;5116829;28;20198;-84
2024/03/06 02:22:33;;;;;;;6.60;3.58;;;3.90;99.90;;;;;;5118277;28;20217;-83
2024/03/06 02:25:00;;;;;;;4.00;3.70;;;3.90;99.90;;;;;;5120091;28;20243;-84
2024/03/06 02:27:28;;;;;;;7.32;6.72;;;3.60;99.90;;;;;;5116242;28;20205;-83
2024/03/06 02:29:55;;;;;;;5.03;4.22;;;3.60;99.90;;;;;;5120859;27;20227;-83
2024/03/06 02:32:25;;;;;;;6.32;5.93;;;3.60;99.90;;;;;;5119339;28;20201;-83
2024/03/06 02:34:53;;;;;;;2.22;2.13;;;3.70;99.90;;;;;;5115550;28;20525;-83
2024/03/06 02:37:20;;;;;;;7.40;6.82;;;3.50;99.90;;;;;;5128786;27;20255;-83
2024/03/06 02:39:48;;;;;;;6.13;5.72;;;3.50;99.90;;;;;;5122769;27;20193;-82
2024/03/06 02:42:17;;;;;;;5.18;3.90;;;3.30;99.90;;;;;;5115624;28;20521;-83
2024/03/06 02:44:45;;;;;;;6.32;5.90;;;3.30;99.90;;;;;;5100862;28;20269;-83
2024/03/06 02:47:13;;;;;;;9.30;8.43;;;3.20;99.90;;;;;;5121090;28;20793;-83
2024/03/06 02:49:42;;;;;;;9.68;8.73;;;3.20;99.90;;;;;;5104596;28;20201;-83
2024/03/06 02:52:09;;;;;;;3.63;3.08;;;3.20;99.90;;;;;;5097220;28;20201;-83
2024/03/06 02:54:41;;;;;;;5.47;5.18;;;3.20;99.90;;;;;;5091063;28;20381;-85
2024/03/06 02:57:11;;;;;;;8.50;6.97;;;3.20;99.90;;;;;;5120167;28;20317;-85
2024/03/06 02:59:40;;;;;;;10.90;8.95;;;3.20;99.90;;;;;;5119506;28;20599;-84
2024/03/06 03:02:07;;;;;;;8.02;4.28;;;3.10;99.90;;;;;;5117913;28;20194;-82
2024/03/06 03:04:34;;;;;;;3.75;3.58;;;3.20;99.90;;;;;;5119636;28;20195;-82
2024/03/06 03:07:05;;;;;;;2.78;2.58;;;3.20;99.90;;;;;;5104586;28;20521;-81
2024/03/06 03:09:35;;;;;;;5.70;5.05;;;3.10;99.90;;;;;;5127792;28;20189;-82
2024/03/06 03:12:04;;;;;;;7.70;6.68;;;3.20;99.90;;;;;;5110171;28;20225;-82
2024/03/06 03:14:31;;;;;;;6.43;5.18;;;3.20;99.90;;;;;;5091687;28;20200;-83
2024/03/06 03:17:02;;;;;;;5.63;5.18;;;3.00;99.90;;;;;;5117432;28;20293;-82
2024/03/06 03:19:29;;;;;;;4.40;4.20;;;2.90;99.90;;;;;;5106247;28;20201;-83
2024/03/06 03:21:56;;;;;;;6.97;4.80;;;3.10;99.90;;;;;;5111868;28;20543;-82
2024/03/06 03:24:26;;;;;;;6.63;5.53;;;3.00;99.90;;;;;;5109667;28;20194;-82
2024/03/06 03:26:53;;;;;;;13.52;4.85;;;3.00;99.90;;;;;;5119061;28;20239;-81
2024/03/06 03:29:21;;;;;;;8.30;7.47;;;3.00;99.90;;;;;;5115046;28;20221;-82
2024/03/06 03:31:48;;;;;;;6.93;6.47;;;2.90;99.90;;;;;;5122111;28;20218;-81
2024/03/06 03:34:24;;;;;;;8.77;8.13;;;2.80;99.90;;;;;;5123324;28;20228;-80
2024/03/06 03:36:56;;;;;;;9.13;6.70;;;2.70;99.90;;;;;;5130627;27;20231;-81
2024/03/06 03:39:25;;;;;;;7.07;6.65;;;2.70;99.90;;;;;;5120361;27;20418;-82
2024/03/06 03:42:07;;;;;;;5.50;5.20;;;2.40;99.90;;;;;;5100010;28;20231;-82
2024/03/06 03:44:39;;;;;;;10.15;5.93;;;2.30;99.90;;;;;;5116870;28;20210;-83
2024/03/06 03:47:07;;;;;;;13.18;6.85;;;2.20;99.90;;;;;;5124303;28;20577;-82
2024/03/06 03:49:35;;;;;;;13.23;8.90;;;2.10;99.90;;;;;;5106051;28;20194;-84
2024/03/06 03:52:03;;;;;;;6.38;5.28;;;2.50;99.90;;;;;;5123796;28;20616;-81
2024/03/06 03:54:30;;;;;;;10.82;7.60;;;2.60;99.90;;;;;;5114522;28;20265;-83
2024/03/06 03:56:59;;;;;;;25.95;12.65;;;2.60;99.90;;;;;;5114079;28;20296;-83
2024/03/06 03:59:28;;;;;;;7.82;6.47;;;2.50;99.90;;;;;;5116212;28;20209;-82
2024/03/06 04:02:04;;;;;;;9.52;7.18;;;2.50;99.90;;;;;;5110504;28;20228;-83
2024/03/06 04:04:31;;;;;;;6.00;5.55;;;2.60;99.90;;;;;;5123452;28;20297;-83
2024/03/06 04:06:59;;;;;;;7.88;4.70;;;2.60;99.90;;;;;;5113535;28;20201;-84
2024/03/06 04:09:26;;;;;;;7.68;6.97;;;2.60;99.90;;;;;;5105681;28;20264;-84
2024/03/06 04:11:55;;;;;;;6.50;5.90;;;2.30;99.90;;;;;;5125765;27;20442;-83
2024/03/06 04:14:26;;;;;;;10.45;8.00;;;2.30;99.90;;;;;;5111489;28;20211;-84
2024/03/06 04:16:54;;;;;;;9.63;7.18;;;2.10;99.90;;;;;;5121197;28;20222;-84
2024/03/06 04:19:22;;;;;;;5.35;5.07;;;2.20;99.90;;;;;;5083502;28;20217;-84
2024/03/06 04:21:49;;;;;;;9.30;8.57;;;2.10;99.90;;;;;;5121287;28;20256;-84
2024/03/06 04:24:18;;;;;;;3.28;2.78;;;1.90;99.90;;;;;;5124324;28;20736;-84
2024/03/06 04:26:45;;;;;;;6.53;5.88;;;2.10;99.90;;;;;;5115908;28;20276;-83
2024/03/06 04:29:13;;;;;;;11.73;6.25;;;2.30;99.90;;;;;;5093802;28;20269;-84
2024/03/06 04:31:41;;;;;;;4.68;4.28;;;2.30;99.90;;;;;;5115423;28;20194;-83
2024/03/06 04:34:08;;;;;;;10.38;9.40;;;2.40;99.90;;;;;;5125379;28;20198;-84
2024/03/06 04:36:36;;;;;;;4.78;4.35;;;2.30;99.90;;;;;;5114478;28;20224;-83
2024/03/06 04:39:08;;;;;;;6.28;5.72;;;2.20;99.90;;;;;;5122271;28;20225;-84
2024/03/06 04:41:38;;;;;;;7.53;6.97;;;2.00;99.90;;;;;;5089037;28;20257;-84
2024/03/06 04:44:07;;;;;;;9.18;6.78;;;2.00;99.90;;;;;;5121172;28;20225;-83
2024/03/06 04:46:35;;;;;;;6.43;5.82;;;2.00;99.90;;;;;;5141662;27;20237;-84
2024/03/06 04:49:04;;;;;;;5.80;5.10;;;1.90;99.90;;;;;;5127223;27;20186;-83
2024/03/06 04:51:31;;;;;;;8.88;8.02;;;1.90;99.90;;;;;;5134491;28;20201;-82
2024/03/06 04:53:58;;;;;;;6.25;5.85;;;1.70;99.90;;;;;;5129577;28;20253;-82
2024/03/06 04:56:25;;;;;;;6.55;6.05;;;1.90;99.90;;;;;;5122874;28;20219;-82
2024/03/06 04:58:53;;;;;;;5.28;4.63;;;2.10;99.90;;;;;;5112523;28;20514;-81
2024/03/06 05:01:21;;;;;;;9.38;7.88;;;2.00;99.90;;;;;;5111927;27;20189;-81
2024/03/06 05:03:49;;;;;;;4.97;4.68;;;1.70;99.90;;;;;;5117970;28;20265;-81
2024/03/06 05:06:34;;;;;;;4.70;4.30;;;1.60;99.90;;;;;;5112617;28;20188;-81
2024/03/06 05:09:20;;;;;;;7.95;5.40;;;1.50;99.90;;;;;;5105560;28;20435;-80
2024/03/06 05:12:05;;;;;;;9.15;6.25;;;1.50;99.90;;;;;;5111071;28;20209;-82
2024/03/06 05:14:51;;;;;;;3.30;3.20;;;1.60;99.90;;;;;;5116527;28;20218;-83
2024/03/06 05:17:36;;;;;;;7.28;6.68;;;1.50;99.90;;;;;;5107716;28;20232;-83
2024/03/06 05:20:20;;;;;;;9.10;8.27;;;1.70;99.90;;;;;;5104184;28;20254;-81
2024/03/06 05:23:04;;;;;;;15.48;7.78;;;1.50;99.90;;;;;;5109119;28;20201;-81
2024/03/06 05:25:50;;;;;;;4.93;4.63;;;1.40;99.90;;;;;;5120188;28;20200;-81
2024/03/06 05:28:35;;;;;;;4.40;4.13;;;1.50;99.90;;;;;;5125873;28;20286;-82
2024/03/06 05:31:23;;;;;;;8.45;7.88;;;1.90;99.90;;;;;;5128348;27;20193;-81
2024/03/06 05:34:07;;;;;;;3.75;3.15;;;1.80;99.90;;;;;;5127940;27;20204;-83
2024/03/06 05:36:54;;;;;;;10.68;7.70;;;1.90;99.90;;;;;;5139638;27;20203;-83
2024/03/06 05:39:42;;;;;;;6.65;5.93;;;1.90;99.90;;;;;;5118441;27;20251;-81
2024/03/06 05:42:28;;;;;;;6.50;5.43;;;1.80;99.90;;;;;;5116445;28;20249;-82
2024/03/06 05:45:14;;;;;;;6.65;6.10;;;1.80;99.90;;;;;;5111731;28;20188;-83
2024/03/06 05:48:04;;;;;;;4.95;4.65;;;1.70;99.90;;;;;;5114908;27;20246;-82
2024/03/06 05:50:48;;;;;;;6.22;5.78;;;1.90;99.90;;;;;;5107554;28;20295;-84
2024/03/06 05:53:42;;;;;;;7.00;6.20;;;1.80;99.90;;;;;;5115210;28;20308;-84
2024/03/06 05:56:27;;;;;;;4.85;4.40;;;1.80;99.90;;;;;;5097291;27;20213;-83
2024/03/06 05:59:15;;;;;;;7.53;6.70;;;1.90;99.90;;;;;;5119391;27;20485;-83
2024/03/06 06:01:44;;;;;;;7.90;4.53;;;1.80;99.90;;;;;;5127200;27;20506;-84
2024/03/06 06:04:13;;;;;;;18.13;11.30;;;1.80;99.90;;;;;;5121287;28;20194;-83
2024/03/06 06:06:41;;;;;;;9.50;5.53;;;1.70;99.90;;;;;;5116482;28;20270;-86
2024/03/06 06:09:15;;;;;;;12.85;7.35;;;1.70;99.90;;;;;;5118070;28;20238;-84
2024/03/06 06:11:43;;;;;;;4.80;3.40;;;1.80;99.90;;;;;;5118616;28;20210;-83
2024/03/06 06:14:12;;;;;;;11.25;6.60;;;1.90;99.90;;;;;;5115156;28;20198;-82
2024/03/06 06:16:42;;;;;;;6.53;5.97;;;1.90;99.90;;;;;;5133401;27;20598;-84
2024/03/06 06:19:12;;;;;;;40.28;8.23;;;2.10;99.90;;;;;;5118001;27;20265;-83
2024/03/06 06:21:41;;;;;;;6.80;6.20;;;2.20;99.90;;;;;;5096238;28;20226;-81
2024/03/06 06:24:09;;;;;;;8.88;8.05;;;2.30;99.90;;;;;;5090013;28;20198;-80
2024/03/06 06:26:36;;;;;;;2.75;2.65;;;2.20;99.90;;;;;;5113376;27;20206;-81
2024/03/06 06:29:06;;;;;;;5.47;5.22;;;2.30;99.90;;;;;;5116547;27;20218;-82
2024/03/06 06:31:33;;;;;;;6.43;5.97;;;2.60;99.90;;;;;;5122148;27;20217;-81
2024/03/06 06:34:00;;;;;;;10.32;9.23;;;3.30;99.90;;;;;;5119589;27;20201;-81
2024/03/06 06:36:27;;;;;;;8.10;7.22;;;3.80;99.90;;;;;;5114570;28;20221;-81
2024/03/06 06:38:55;;;;;;;6.55;6.05;;;3.70;99.90;;;;;;5118362;28;20213;-82
2024/03/06 06:41:23;;;;;;;5.60;5.20;;;3.60;99.90;;;;;;5096236;28;20497;-81
2024/03/06 06:43:52;;;;;;;3.97;3.78;;;4.30;99.90;;;;;;5111457;27;20272;-80
2024/03/06 06:46:21;;;;;;;5.63;5.28;;;4.40;99.90;;;;;;5112165;28;20194;-80
2024/03/06 06:48:51;;;;;;;1.85;1.75;;;4.20;99.90;;;;;;5111927;27;20272;-82
2024/03/06 06:51:18;;;;;;;4.53;3.83;;;4.80;99.90;;;;;;5111655;28;20225;-80
2024/03/06 06:53:48;;;;;;;5.32;4.95;;;5.00;99.90;;;;;;5116842;28;20197;-83
2024/03/06 06:56:15;;;;;;;4.13;3.85;;;4.10;99.90;;;;;;5117052;28;20224;-81
2024/03/06 06:58:44;;;;;;;4.18;3.97;;;4.20;99.90;;;;;;5119918;28;20210;-79
2024/03/06 07:01:11;;;;;;;7.80;7.35;;;4.00;99.90;;;;;;5107580;28;20194;-79
2024/03/06 07:03:38;;;;;;;6.45;5.50;;;3.80;99.90;;;;;;5114577;28;20193;-78
2024/03/06 07:06:06;;;;;;;3.35;3.25;;;4.10;99.90;;;;;;5101019;28;20424;-78
2024/03/06 07:08:37;;;;;;;5.40;4.93;;;4.90;99.90;;;;;;5113727;28;20204;-81
2024/03/06 07:11:04;;;;;;;1.75;1.67;;;5.10;99.90;;;;;;5114988;28;20198;-83
2024/03/06 07:13:32;;;;;;;6.28;4.63;;;5.20;99.90;;;;;;5113978;28;20511;-82
2024/03/06 07:15:59;;;;;;;4.25;3.85;;;5.30;99.90;;;;;;5106007;28;20198;-81
2024/03/06 07:18:26;;;;;;;3.22;3.08;;;5.20;99.90;;;;;;5101157;28;20221;-81
2024/03/06 07:20:53;;;;;;;5.72;5.35;;;5.40;99.90;;;;;;5120198;28;20201;-78
2024/03/06 07:23:21;;;;;;;2.45;2.35;;;5.20;99.90;;;;;;5102481;28;20490;-82
2024/03/06 07:25:48;;;;;;;5.03;4.75;;;5.50;99.90;;;;;;5118196;28;20210;-84
2024/03/06 07:28:15;;;;;;;5.07;4.65;;;5.50;99.90;;;;;;5119295;28;20232;-82
2024/03/06 07:30:42;;;;;;;1.08;1.08;;;5.60;99.90;;;;;;5083456;28;20207;-81
2024/03/06 07:33:09;;;;;;;5.80;5.53;;;5.50;99.90;;;;;;5120988;28;20226;-82
2024/03/06 07:35:36;;;;;;;1.27;1.27;;;6.00;99.90;;;;;;5124439;28;20326;-81
2024/03/06 07:38:05;;;;;;;1.55;1.55;;;6.90;99.90;;;;;;5153108;28;20217;-82
2024/03/06 07:40:32;;;;;;;1.85;1.85;;;8.00;99.90;;;;;;5143954;28;20227;-82
2024/03/06 07:43:00;;;;;;;3.50;3.40;;;9.50;99.90;;;;;;5126199;28;20204;-80
2024/03/06 07:45:27;;;;;;;6.85;6.35;;;8.90;99.90;;;;;;5130659;28;20225;-81
2024/03/06 07:47:54;;;;;;;5.15;4.90;;;9.30;99.90;;;;;;5098310;28;20451;-80
2024/03/06 07:50:22;;;;;;;2.20;2.10;;;10.00;99.90;;;;;;5130328;28;20240;-81
2024/03/06 07:52:54;;;;;;;5.72;5.22;;;11.00;99.90;;;;;;5127713;28;20194;-80
2024/03/06 07:55:21;;;;;;;2.55;2.45;;;11.40;99.90;;;;;;5130103;28;20222;-82
2024/03/06 07:57:49;;;;;;;2.00;1.98;;;11.00;99.90;;;;;;5125298;28;20221;-82
2024/03/06 08:00:19;;;;;;;2.53;2.42;;;11.80;99.90;;;;;;5118899;28;20236;-85
2024/03/06 08:02:51;;;;;;;2.50;2.40;;;11.50;99.90;;;;;;5129872;28;20192;-83
2024/03/06 08:05:18;;;;;;;2.83;2.70;;;11.90;99.90;;;;;;5127811;28;20191;-84
2024/03/06 08:07:46;;;;;;;5.85;5.55;;;12.20;97.30;;;;;;5124940;28;20227;-83
2024/03/06 08:10:13;;;;;;;7.50;5.77;;;11.60;97.40;;;;;;5123557;28;20337;-82
2024/03/06 08:12:41;;;;;;;3.70;2.90;;;11.10;98.20;;;;;;5090054;28;20442;-82
2024/03/06 08:15:11;;;;;;;2.93;2.70;;;10.50;99.90;;;;;;5113895;28;20434;-83
2024/03/06 08:17:41;;;;;;;4.15;3.97;;;10.60;99.90;;;;;;5119343;28;20464;-84
2024/03/06 08:20:09;;;;;;;4.43;4.25;;;9.80;99.90;;;;;;5122048;28;20238;-82
2024/03/06 08:22:39;;;;;;;6.47;6.07;;;9.20;99.90;;;;;;5114566;28;20198;-83
2024/03/06 08:25:11;;;;;;;4.45;4.10;;;11.00;99.90;;;;;;5124810;28;20220;-82
2024/03/06 08:27:42;;;;;;;2.22;2.13;;;11.40;99.90;;;;;;5115798;28;20205;-83
2024/03/06 08:30:10;;;;;;;3.80;3.23;;;11.20;99.90;;;;;;5108272;28;20219;-82
2024/03/06 08:32:37;;;;;;;5.37;4.97;;;12.60;99.00;;;;;;5106378;28;20419;-82
2024/03/06 08:35:10;;;;;;;6.03;5.57;;;11.70;98.80;;;;;;5118395;28;20441;-82
2024/03/06 08:37:40;;;;;;;1.90;1.80;;;11.50;98.00;;;;;;5110893;28;20672;-85
2024/03/06 08:40:10;;;;;;;2.57;2.47;;;9.50;99.90;;;;;;5093553;28;20515;-83
2024/03/06 08:42:37;;;;;;;3.75;3.55;;;10.30;99.90;;;;;;5113605;27;20441;-81
2024/03/06 08:45:05;;;;;;;2.67;2.47;;;9.30;99.90;;;;;;5121601;28;20267;-81
2024/03/06 08:47:32;;;;;;;3.55;3.35;;;8.70;99.90;;;;;;5113321;28;20196;-84
2024/03/06 08:49:59;;;;;;;1.90;1.80;;;9.70;99.90;;;;;;5110599;28;20201;-81
2024/03/06 08:52:26;;;;;;;2.90;2.75;;;9.60;99.90;;;;;;5130421;27;20513;-82
2024/03/06 08:54:54;;;;;;;3.77;3.57;;;9.60;99.90;;;;;;5128148;27;20209;-82
2024/03/06 08:57:22;;;;;;;5.53;5.13;;;10.00;99.90;;;;;;5101904;28;20452;-81
2024/03/06 08:59:49;;;;;;;4.18;3.78;;;8.20;99.90;;;;;;5103732;28;20464;-84
2024/03/06 09:02:19;;;;;;;2.28;2.17;;;7.30;99.90;;;;;;5109707;28;20262;-81
2024/03/06 09:04:47;;;;;;;2.47;2.30;;;7.70;99.90;;;;;;5122463;28;20201;-82
2024/03/06 09:07:14;;;;;;;1.83;1.83;;;9.20;99.90;;;;;;5113245;28;20270;-82
2024/03/06 09:09:41;;;;;;;3.80;3.60;;;9.60;99.90;;;;;;5102157;28;20342;-83
2024/03/06 09:12:14;;;;;;;3.47;3.33;;;10.00;99.90;;;;;;5124851;28;20804;-81
2024/03/06 09:14:41;;;;;;;3.17;3.03;;;9.80;99.90;;;;;;5115336;28;20799;-82
2024/03/06 09:17:14;;;;;;;5.47;5.10;;;9.50;99.90;;;;;;5103737;28;20484;-81
2024/03/06 09:19:42;;;;;;;1.80;1.70;;;8.80;99.90;;;;;;5120617;28;20426;-82
2024/03/06 09:22:29;;;;;;;2.30;1.97;;;10.00;99.90;;;;;;5120196;28;20431;-85
2024/03/06 09:24:56;;;;;;;2.20;1.87;;;9.40;99.90;;;;;;5116231;28;20445;-83
2024/03/06 09:27:23;;;;;;;2.23;2.13;;;9.50;99.90;;;;;;5099903;28;20433;-82
2024/03/06 09:29:50;;;;;;;3.20;2.97;;;9.00;99.90;;;;;;5114056;28;20442;-82
2024/03/06 09:32:19;;;;;;;3.15;2.95;;;8.80;99.90;;;;;;5098415;28;20360;-83
2024/03/06 09:34:46;;;;;;;2.83;2.72;;;8.50;99.90;;;;;;5116126;28;20206;-83
2024/03/06 09:37:14;;;;;;;2.72;2.63;;;7.90;99.90;;;;;;5114275;28;20489;-82
2024/03/06 09:39:41;;;;;;;3.63;3.42;;;8.60;99.90;;;;;;5116266;27;20477;-82
2024/03/06 09:42:08;;;;;;;0.90;0.90;;;8.70;99.90;;;;;;5125175;27;20205;-81
2024/03/06 09:44:36;;;;;;;3.88;3.63;;;8.60;99.90;;;;;;5112029;28;20200;-80
2024/03/06 09:47:06;;;;;;;2.05;2.00;;;8.10;99.90;;;;;;5121170;28;20202;-83
2024/03/06 09:49:34;;;;;;;3.08;2.95;;;8.70;99.90;;;;;;5103884;28;20224;-82
2024/03/06 09:52:03;;;;;;;2.13;2.03;;;8.80;99.90;;;;;;5112157;28;20249;-80
2024/03/06 09:54:31;;;;;;;0.95;0.95;;;8.30;99.90;;;;;;5097482;28;20199;-83
2024/03/06 09:56:58;;;;;;;0.77;0.77;;;7.90;99.90;;;;;;5103659;28;20223;-81
2024/03/06 09:59:27;;;;;;;3.55;3.38;;;7.70;99.90;;;;;;5113593;28;20222;-80
2024/03/06 10:01:57;;;;;;;1.23;1.23;;;7.90;99.90;;;;;;5104390;28;20235;-82
2024/03/06 10:04:29;;;;;;;2.55;2.35;;;8.10;99.90;;;;;;5094607;28;20190;-81
2024/03/06 10:06:57;;;;;;;1.20;1.20;;;8.40;99.90;;;;;;5114720;28;20269;-82
2024/03/06 10:09:26;;;;;;;2.10;2.00;;;8.70;99.90;;;;;;5114135;28;20241;-82
2024/03/06 10:11:56;;;;;;;2.38;2.25;;;8.20;99.90;;;;;;5101859;28;20308;-82
2024/03/06 10:14:25;;;;;;;1.67;1.67;;;8.10;99.90;;;;;;5102650;28;20218;-81
2024/03/06 10:16:53;;;;;;;3.35;1.88;;;8.50;99.90;;;;;;5120621;28;20251;-82
2024/03/06 10:19:21;;;;;;;1.80;1.70;;;8.30;99.90;;;;;;5121019;28;20284;-82
2024/03/06 10:21:50;;;;;;;1.80;1.70;;;8.40;98.70;;;;;;5096846;28;20222;-81
2024/03/06 10:24:23;;;;;;;4.65;2.40;;;8.30;98.00;;;;;;5121750;28;20272;-82
2024/03/06 10:26:54;;;;;;;1.25;1.25;;;8.30;99.30;;;;;;5120536;28;20206;-79
2024/03/06 10:29:22;;;;;;;0.93;0.93;;;8.10;97.50;;;;;;5112980;28;20193;-80
2024/03/06 10:31:56;;;;;;;1.00;1.00;;;8.00;97.80;;;;;;5137369;28;20193;-82
2024/03/06 10:34:28;;;;;;;1.65;1.55;;;8.20;98.20;;;;;;5108446;28;20276;-81
2024/03/06 10:36:57;;;;;;;2.28;2.17;;;8.30;99.00;;;;;;5119413;28;20201;-82
2024/03/06 10:39:25;;;;;;;3.38;2.75;;;8.30;99.90;;;;;;5094773;28;20290;-81
2024/03/06 10:41:57;;;;;;;1.00;1.00;;;8.50;99.90;;;;;;5108401;28;20263;-82
2024/03/06 10:44:28;;;;;;;2.30;2.20;;;8.60;99.50;;;;;;5100743;28;20194;-82
2024/03/06 10:47:02;;;;;;;3.10;2.78;;;9.00;99.00;;;;;;5101608;28;20201;-81
2024/03/06 10:49:32;;;;;;;2.03;1.92;;;8.30;98.10;;;;;;5106276;28;20450;-82
2024/03/06 10:52:01;;;;;;;3.95;3.72;;;8.60;99.90;;;;;;5110502;28;20225;-79
2024/03/06 10:54:34;;;;;;;4.35;4.15;;;8.20;99.90;;;;;;5096565;28;20266;-82
2024/03/06 10:57:02;;;;;;;1.65;1.55;;;8.20;99.90;;;;;;5112947;28;20359;-82
2024/03/06 10:59:30;;;;;;;1.80;1.70;;;8.20;99.90;;;;;;5106600;28;20221;-81
2024/03/06 11:02:02;;;;;;;1.50;1.50;;;8.10;99.90;;;;;;5120173;28;20210;-83
2024/03/06 11:04:33;;;;;;;3.85;3.58;;;8.20;99.90;;;;;;5114531;28;20198;-81
2024/03/06 11:07:03;;;;;;;2.67;2.55;;;7.60;99.90;;;;;;5108725;28;20260;-83
2024/03/06 11:09:34;;;;;;;1.35;1.35;;;7.40;99.90;;;;;;5122555;28;20221;-82
2024/03/06 11:12:02;;;;;;;3.40;3.20;;;7.50;99.90;;;;;;5116268;28;20212;-80
2024/03/06 11:14:31;;;;;;;2.15;2.05;;;7.90;99.90;;;;;;5109857;28;20402;-82
2024/03/06 11:17:07;;;;;;;2.22;2.13;;;7.90;99.90;;;;;;5101574;28;20221;-80
2024/03/06 11:20:05;;;;;;;1.20;1.20;;;7.70;99.90;;;;;;5116722;28;20228;-81
2024/03/06 11:23:12;;;;;;;2.28;2.00;;;7.30;99.90;;;;;;5107611;28;20420;-80
2024/03/06 11:25:53;;;;;;;7.00;6.38;;;7.20;99.90;;;;;;5038052;28;20204;-80
2024/03/06 11:28:21;;;;;;;4.50;4.20;;;7.20;99.90;;;;;;5041560;28;20306;-82
2024/03/06 11:30:58;;;;;;;4.97;4.50;;;7.00;99.90;;;;;;5094449;28;20666;-84
2024/03/06 11:33:37;;;;;;;5.38;5.03;;;7.10;99.90;;;;;;5106795;28;20218;-81
2024/03/06 11:36:18;;;;;;;3.55;3.25;;;7.00;99.90;;;;;;5109895;28;20189;-84
2024/03/06 11:38:57;;;;;;;5.38;3.22;;;7.10;99.90;;;;;;5099644;28;20228;-79
2024/03/06 11:41:31;;;;;;;3.17;2.97;;;7.00;99.90;;;;;;5112663;28;20238;-84
2024/03/06 11:44:02;;;;;;;1.90;1.80;;;7.00;99.90;;;;;;5093562;28;20193;-82
2024/03/06 11:46:50;;;;;;;2.15;2.08;;;6.80;99.90;;;;;;5119701;28;20194;-82
2024/03/06 11:49:21;;;;;;;9.85;1.80;;;6.90;99.90;;;;;;5123392;28;20190;-81
2024/03/06 11:51:48;;;;;;;3.72;2.60;;;6.90;99.90;;;;;;5114317;28;20230;-82
2024/03/06 11:54:17;;;;;;;2.28;2.10;;;6.80;99.90;;;;;;5106241;28;20202;-80
2024/03/06 11:56:50;;;;;;;4.32;4.10;;;6.70;99.90;;;;;;5108775;28;20505;-82
2024/03/06 11:59:20;;;;;;;6.15;5.25;;;6.90;99.90;;;;;;5117657;28;20576;-82
2024/03/06 12:01:47;;;;;;;4.75;3.70;;;6.90;99.90;;;;;;5093712;28;20255;-84
2024/03/06 12:04:14;;;;;;;3.05;2.90;;;6.80;99.90;;;;;;5107150;28;20265;-80
2024/03/06 12:06:41;;;;;;;3.97;3.67;;;6.80;99.90;;;;;;5106581;28;20527;-81
2024/03/06 12:09:11;;;;;;;3.67;3.38;;;6.50;99.90;;;;;;5114785;28;20269;-84
2024/03/06 12:11:38;;;;;;;4.78;4.38;;;6.60;99.90;;;;;;5118351;28;20240;-83
2024/03/06 12:14:05;;;;;;;2.47;2.35;;;6.70;99.90;;;;;;5098562;28;20199;-84
2024/03/06 12:16:34;;;;;;;1.42;1.42;;;7.20;99.90;;;;;;5098878;28;20221;-83
2024/03/06 12:19:01;;;;;;;3.65;3.42;;;7.50;99.90;;;;;;5134961;27;20469;-84
2024/03/06 12:21:34;;;;;;;5.18;3.28;;;7.30;99.90;;;;;;5116218;28;20277;-82
2024/03/06 12:24:05;;;;;;;3.97;3.08;;;7.30;99.90;;;;;;5116285;28;20202;-82
2024/03/06 12:26:33;;;;;;;3.08;2.83;;;7.40;99.90;;;;;;5100423;28;20205;-80
2024/03/06 12:29:05;;;;;;;1.58;1.58;;;7.20;99.90;;;;;;5113844;28;20202;-84
2024/03/06 12:31:35;;;;;;;6.32;5.72;;;7.50;99.90;;;;;;5122826;28;20221;-85
2024/03/06 12:34:04;;;;;;;3.45;3.35;;;7.60;99.90;;;;;;5102760;28;20201;-84
2024/03/06 12:36:34;;;;;;;2.13;2.03;;;7.30;99.90;;;;;;5110509;28;20256;-81
2024/03/06 12:39:03;;;;;;;4.80;4.43;;;7.50;99.90;;;;;;5108116;28;20215;-82
2024/03/06 12:41:31;;;;;;;1.50;1.50;;;7.10;99.90;;;;;;5120137;28;20206;-85
2024/03/06 12:44:15;;;;;;;6.05;2.97;;;7.40;99.90;;;;;;5118745;27;20189;-83
2024/03/06 12:46:42;;;;;;;2.88;2.72;;;7.70;99.90;;;;;;5114449;28;20186;-83
2024/03/06 12:49:09;;;;;;;5.75;3.65;;;7.50;99.90;;;;;;5119098;28;20240;-82
2024/03/06 12:51:36;;;;;;;1.77;1.67;;;7.60;99.90;;;;;;5120338;28;20513;-87
2024/03/06 12:54:03;;;;;;;1.60;1.55;;;7.40;99.90;;;;;;5104519;28;20260;-84
2024/03/06 12:56:30;;;;;;;2.45;2.35;;;7.50;99.90;;;;;;5114327;28;20359;-80
2024/03/06 12:58:58;;;;;;;3.40;3.13;;;7.30;99.90;;;;;;5117104;28;20288;-81
2024/03/06 13:01:25;;;;;;;3.40;3.10;;;7.10;99.90;;;;;;5114930;28;20222;-84
2024/03/06 13:04:00;;;;;;;3.85;3.55;;;7.10;99.90;;;;;;5111591;28;20217;-80
2024/03/06 13:06:32;;;;;;;1.52;1.52;;;7.00;99.90;;;;;;5106422;28;20306;-78
2024/03/06 13:08:59;;;;;;;2.00;1.95;;;6.70;99.90;;;;;;5111558;28;20266;-84
2024/03/06 13:11:27;;;;;;;2.25;2.15;;;6.70;99.90;;;;;;5121296;28;20500;-83